createdAt,value
2017-11-18T00:00:47.903Z,0
2017-11-18T00:01:48.172Z,0
2017-11-18T00:02:48.286Z,0
2017-11-18T00:03:47.687Z,0
2017-11-18T00:04:47.967Z,0
2017-11-18T00:05:48.241Z,0
2017-11-18T00:06:47.482Z,0
2017-11-18T00:07:48.322Z,0
2017-11-18T00:08:48.073Z,0
2017-11-18T00:09:47.789Z,0
2017-11-18T00:10:48.344Z,0
2017-11-18T00:11:48.107Z,0
2017-11-18T00:12:48.357Z,0
2017-11-18T00:13:47.855Z,0
2017-11-18T00:14:48.377Z,0
2017-11-18T00:15:48.404Z,0
2017-11-18T00:16:48.416Z,0
2017-11-18T00:17:47.907Z,0
2017-11-18T00:18:47.666Z,0
2017-11-18T00:19:48.468Z,0
2017-11-18T00:20:48.464Z,0
2017-11-18T00:21:47.977Z,0
2017-11-18T00:22:48.559Z,0
2017-11-18T00:23:48.477Z,0
2017-11-18T00:24:48.277Z,0
2017-11-18T00:25:48.554Z,0
2017-11-18T00:26:48.309Z,0
2017-11-18T00:27:48.323Z,0
2017-11-18T00:28:47.821Z,0
2017-11-18T00:29:48.359Z,0
2017-11-18T00:30:48.110Z,0
2017-11-18T00:31:48.655Z,0
2017-11-18T00:32:48.401Z,0
2017-11-18T00:33:48.674Z,0
2017-11-18T00:34:48.428Z,0
2017-11-18T00:35:48.446Z,0
2017-11-18T00:36:48.467Z,0
2017-11-18T00:37:48.273Z,0
2017-11-18T00:38:48.491Z,0
2017-11-18T00:39:48.506Z,0
2017-11-18T00:40:48.521Z,0
2017-11-18T00:41:48.796Z,0
2017-11-18T00:42:48.318Z,0
2017-11-18T00:43:48.325Z,0
2017-11-18T00:44:48.843Z,0
2017-11-18T00:45:48.602Z,0
2017-11-18T00:46:48.630Z,0
2017-11-18T00:47:48.374Z,0
2017-11-18T00:48:48.664Z,0
2017-11-18T00:49:48.660Z,0
2017-11-18T00:50:48.424Z,0
2017-11-18T00:51:48.446Z,0
2017-11-18T00:52:48.760Z,0
2017-11-18T00:53:48.976Z,0
2017-11-18T00:54:49.005Z,0
2017-11-18T00:55:48.506Z,0
2017-11-18T00:56:49.058Z,0
2017-11-18T00:57:48.791Z,0
2017-11-18T00:58:48.822Z,0
2017-11-18T00:59:48.818Z,0
2017-11-18T01:00:48.827Z,0
2017-11-18T01:01:48.845Z,0
2017-11-18T01:02:49.123Z,0
2017-11-18T01:03:48.624Z,0
2017-11-18T01:04:48.896Z,0
2017-11-18T01:05:49.177Z,0
2017-11-18T01:06:48.962Z,0
2017-11-18T01:07:48.477Z,0
2017-11-18T01:08:48.991Z,0
2017-11-18T01:09:48.974Z,0
2017-11-18T01:10:49.013Z,0
2017-11-18T01:11:49.006Z,0
2017-11-18T01:12:49.274Z,0
2017-11-18T01:13:49.033Z,0
2017-11-18T01:14:49.052Z,0
2017-11-18T01:15:49.327Z,0
2017-11-18T01:16:49.105Z,0
2017-11-18T01:17:49.365Z,0
2017-11-18T01:18:49.373Z,0
2017-11-18T01:19:48.871Z,0
2017-11-18T01:20:48.885Z,0
2017-11-18T01:21:49.447Z,0
2017-11-18T01:22:49.277Z,0
2017-11-18T01:23:49.192Z,0
2017-11-18T01:24:48.689Z,0
2017-11-18T01:25:49.481Z,0
2017-11-18T01:26:49.488Z,0
2017-11-18T01:27:48.991Z,0
2017-11-18T01:28:49.035Z,0
2017-11-18T01:29:49.534Z,0
2017-11-18T01:30:49.558Z,0
2017-11-18T01:31:49.332Z,0
2017-11-18T01:32:49.084Z,0
2017-11-18T01:33:49.090Z,0
2017-11-18T01:34:49.355Z,0
2017-11-18T01:35:49.115Z,0
2017-11-18T01:36:49.393Z,0
2017-11-18T01:37:49.448Z,0
2017-11-18T01:38:49.201Z,0
2017-11-18T01:39:49.698Z,0
2017-11-18T01:40:49.723Z,0
2017-11-18T01:41:49.721Z,0
2017-11-18T01:42:49.482Z,0
2017-11-18T01:43:49.240Z,0
2017-11-18T01:44:49.778Z,0
2017-11-18T01:45:49.789Z,0
2017-11-18T01:46:49.547Z,0
2017-11-18T01:47:49.573Z,0
2017-11-18T01:48:49.316Z,0
2017-11-18T01:49:49.864Z,0
2017-11-18T01:50:49.614Z,0
2017-11-18T01:51:49.893Z,0
2017-11-18T01:52:49.636Z,0
2017-11-18T01:53:49.408Z,0
2017-11-18T01:54:49.669Z,0
2017-11-18T01:55:49.941Z,0
2017-11-18T01:56:49.757Z,0
2017-11-18T01:57:49.466Z,0
2017-11-18T01:58:49.977Z,0
2017-11-18T01:59:49.741Z,0
2017-11-18T02:00:49.756Z,0
2017-11-18T02:01:49.792Z,0
2017-11-18T02:02:49.795Z,0
2017-11-18T02:03:49.561Z,0
2017-11-18T02:04:50.094Z,0
2017-11-18T02:05:49.596Z,0
2017-11-18T02:06:49.852Z,0
2017-11-18T02:07:49.973Z,0
2017-11-18T02:08:50.158Z,0
2017-11-18T02:09:49.642Z,0
2017-11-18T02:10:49.914Z,0
2017-11-18T02:11:50.252Z,0
2017-11-18T02:12:50.201Z,0
2017-11-18T02:13:49.965Z,0
2017-11-18T02:14:50.232Z,0
2017-11-18T02:15:50.003Z,0
2017-11-18T02:16:50.010Z,0
2017-11-18T02:17:49.774Z,0
2017-11-18T02:18:50.307Z,0
2017-11-18T02:19:50.057Z,0
2017-11-18T02:20:49.803Z,0
2017-11-18T02:21:50.091Z,0
2017-11-18T02:22:50.361Z,0
2017-11-18T02:23:50.398Z,0
2017-11-18T02:24:50.395Z,0
2017-11-18T02:25:49.887Z,0
2017-11-18T02:26:50.440Z,0
2017-11-18T02:27:50.232Z,0
2017-11-18T02:28:50.460Z,0
2017-11-18T02:29:50.498Z,0
2017-11-18T02:30:50.511Z,0
2017-11-18T02:31:50.004Z,0
2017-11-18T02:32:50.284Z,0
2017-11-18T02:33:50.318Z,0
2017-11-18T02:34:50.556Z,0
2017-11-18T02:35:50.584Z,0
2017-11-18T02:36:50.321Z,0
2017-11-18T02:37:50.362Z,0
2017-11-18T02:38:50.363Z,0
2017-11-18T02:39:50.410Z,0
2017-11-18T02:40:50.117Z,0
2017-11-18T02:41:50.407Z,0
2017-11-18T02:42:50.664Z,0
2017-11-18T02:43:50.702Z,0
2017-11-18T02:44:50.433Z,0
2017-11-18T02:45:50.758Z,0
2017-11-18T02:46:50.755Z,0
2017-11-18T02:47:50.742Z,0
2017-11-18T02:48:50.503Z,0
2017-11-18T02:49:50.513Z,0
2017-11-18T02:50:50.266Z,0
2017-11-18T02:51:50.817Z,0
2017-11-18T02:52:50.839Z,0
2017-11-18T02:53:50.311Z,0
2017-11-18T02:54:50.855Z,0
2017-11-18T02:55:50.604Z,0
2017-11-18T02:56:50.623Z,0
2017-11-18T02:57:50.372Z,0
2017-11-18T02:58:50.914Z,0
2017-11-18T02:59:50.919Z,0
2017-11-18T03:00:50.953Z,0
2017-11-18T03:01:50.686Z,0
2017-11-18T03:02:50.973Z,0
2017-11-18T03:03:50.719Z,0
2017-11-18T03:04:50.742Z,0
2017-11-18T03:05:51.008Z,0
2017-11-18T03:06:51.027Z,0
2017-11-18T03:07:50.785Z,0
2017-11-18T03:08:51.071Z,0
2017-11-18T03:09:51.078Z,0
2017-11-18T03:10:50.828Z,0
2017-11-18T03:11:50.852Z,0
2017-11-18T03:12:51.177Z,0
2017-11-18T03:13:50.610Z,0
2017-11-18T03:14:50.998Z,0
2017-11-18T03:15:51.155Z,0
2017-11-18T03:16:51.174Z,0
2017-11-18T03:17:51.194Z,0
2017-11-18T03:18:50.947Z,0
2017-11-18T03:19:51.017Z,0
2017-11-18T03:20:50.744Z,0
2017-11-18T03:21:50.221Z,0
2017-11-18T03:22:51.020Z,0
2017-11-18T03:23:51.279Z,0
2017-11-18T03:24:51.036Z,0
2017-11-18T03:25:50.797Z,0
2017-11-18T03:26:51.074Z,0
2017-11-18T03:27:51.083Z,0
2017-11-18T03:28:50.839Z,0
2017-11-18T03:29:51.112Z,0
2017-11-18T03:30:51.173Z,0
2017-11-18T03:31:51.409Z,0
2017-11-18T03:32:51.430Z,0
2017-11-18T03:33:51.641Z,0
2017-11-18T03:34:51.189Z,0
2017-11-18T03:35:51.213Z,0
2017-11-18T03:36:51.270Z,0
2017-11-18T03:37:50.719Z,0
2017-11-18T03:38:51.264Z,0
2017-11-18T03:39:51.542Z,0
2017-11-18T03:40:51.556Z,0
2017-11-18T03:41:51.307Z,0
2017-11-18T03:42:51.315Z,0
2017-11-18T03:43:51.590Z,0
2017-11-18T03:44:51.345Z,0
2017-11-18T03:45:51.627Z,0
2017-11-18T03:46:51.379Z,0
2017-11-18T03:47:51.126Z,0
2017-11-18T03:48:51.133Z,0
2017-11-18T03:49:51.155Z,0
2017-11-18T03:50:51.165Z,0
2017-11-18T03:51:51.184Z,0
2017-11-18T03:52:51.920Z,0
2017-11-18T03:53:51.741Z,0
2017-11-18T03:54:51.492Z,0
2017-11-18T03:55:51.811Z,0
2017-11-18T03:56:51.262Z,0
2017-11-18T03:57:51.535Z,0
2017-11-18T03:58:51.552Z,0
2017-11-18T03:59:51.565Z,0
2017-11-18T04:00:51.878Z,0
2017-11-18T04:01:51.894Z,0
2017-11-18T04:02:51.876Z,0
2017-11-18T04:03:51.377Z,0
2017-11-18T04:04:51.386Z,0
2017-11-18T04:05:51.674Z,0
2017-11-18T04:06:51.670Z,0
2017-11-18T04:07:51.698Z,0
2017-11-18T04:08:51.702Z,0
2017-11-18T04:09:51.773Z,0
2017-11-18T04:10:52.011Z,0
2017-11-18T04:11:51.748Z,0
2017-11-18T04:12:51.538Z,0
2017-11-18T04:13:52.046Z,0
2017-11-18T04:14:51.535Z,0
2017-11-18T04:15:52.071Z,0
2017-11-18T04:16:51.568Z,0
2017-11-18T04:17:52.105Z,0
2017-11-18T04:18:51.596Z,0
2017-11-18T04:19:51.873Z,0
2017-11-18T04:20:51.882Z,0
2017-11-18T04:21:52.176Z,0
2017-11-18T04:22:52.180Z,0
2017-11-18T04:23:51.931Z,0
2017-11-18T04:24:52.255Z,0
2017-11-18T04:25:52.217Z,0
2017-11-18T04:26:51.728Z,0
2017-11-18T04:27:51.995Z,0
2017-11-18T04:28:52.012Z,0
2017-11-18T04:29:52.030Z,0
2017-11-18T04:30:51.519Z,0
2017-11-18T04:31:52.298Z,0
2017-11-18T04:32:52.328Z,0
2017-11-18T04:33:52.082Z,0
2017-11-18T04:34:51.846Z,0
2017-11-18T04:35:52.104Z,0
2017-11-18T04:36:52.134Z,0
2017-11-18T04:37:52.163Z,0
2017-11-18T04:38:51.630Z,0
2017-11-18T04:39:52.479Z,0
2017-11-18T04:40:51.933Z,0
2017-11-18T04:41:52.197Z,0
2017-11-18T04:42:52.495Z,0
2017-11-18T04:43:51.974Z,0
2017-11-18T04:44:52.533Z,0
2017-11-18T04:45:52.256Z,0
2017-11-18T04:46:52.012Z,0
2017-11-18T04:47:52.560Z,0
2017-11-18T04:48:52.566Z,0
2017-11-18T04:49:52.063Z,0
2017-11-18T04:50:52.069Z,0
2017-11-18T04:51:52.347Z,0
2017-11-18T04:52:52.362Z,0
2017-11-18T04:53:52.387Z,0
2017-11-18T04:54:52.692Z,0
2017-11-18T04:55:52.675Z,0
2017-11-18T04:56:52.694Z,0
2017-11-18T04:57:52.175Z,0
2017-11-18T04:58:52.191Z,0
2017-11-18T04:59:52.471Z,0
2017-11-18T05:00:52.479Z,0
2017-11-18T05:01:52.499Z,0
2017-11-18T05:02:52.518Z,0
2017-11-18T05:03:52.802Z,0
2017-11-18T05:04:52.295Z,0
2017-11-18T05:05:52.297Z,0
2017-11-18T05:06:52.575Z,0
2017-11-18T05:07:52.068Z,0
2017-11-18T05:08:52.102Z,0
2017-11-18T05:09:52.621Z,0
2017-11-18T05:10:52.378Z,0
2017-11-18T05:11:52.385Z,0
2017-11-18T05:12:52.401Z,0
2017-11-18T05:13:52.411Z,0
2017-11-18T05:14:52.682Z,0
2017-11-18T05:15:52.958Z,0
2017-11-18T05:16:52.708Z,0
2017-11-18T05:17:52.983Z,0
2017-11-18T05:18:52.744Z,0
2017-11-18T05:19:52.498Z,0
2017-11-18T05:20:52.516Z,0
2017-11-18T05:21:52.537Z,0
2017-11-18T05:22:52.537Z,0
2017-11-18T05:23:53.090Z,0
2017-11-18T05:24:52.837Z,0
2017-11-18T05:25:52.848Z,0
2017-11-18T05:26:53.120Z,0
2017-11-18T05:27:53.178Z,0
2017-11-18T05:28:52.369Z,0
2017-11-18T05:29:53.163Z,0
2017-11-18T05:30:52.658Z,0
2017-11-18T05:31:52.418Z,0
2017-11-18T05:32:52.429Z,0
2017-11-18T05:33:52.960Z,0
2017-11-18T05:34:53.228Z,0
2017-11-18T05:35:53.006Z,0
2017-11-18T05:36:52.489Z,0
2017-11-18T05:37:52.754Z,0
2017-11-18T05:38:53.049Z,0
2017-11-18T05:39:53.044Z,0
2017-11-18T05:40:53.073Z,0
2017-11-18T05:41:53.339Z,0
2017-11-18T05:42:52.581Z,0
2017-11-18T05:43:53.361Z,0
2017-11-18T05:44:53.422Z,0
2017-11-18T05:45:53.384Z,0
2017-11-18T05:46:53.149Z,0
2017-11-18T05:47:53.484Z,0
2017-11-18T05:48:53.436Z,0
2017-11-18T05:49:52.924Z,0
2017-11-18T05:50:53.207Z,0
2017-11-18T05:51:53.213Z,0
2017-11-18T05:52:52.974Z,0
2017-11-18T05:53:52.994Z,0
2017-11-18T05:54:53.007Z,0
2017-11-18T05:55:53.032Z,0
2017-11-18T05:56:53.284Z,0
2017-11-18T05:57:53.570Z,0
2017-11-18T05:58:53.319Z,0
2017-11-18T05:59:53.585Z,0
2017-11-18T06:00:53.648Z,0
2017-11-18T06:01:52.847Z,0
2017-11-18T06:02:53.428Z,0
2017-11-18T06:03:53.397Z,0
2017-11-18T06:04:53.657Z,0
2017-11-18T06:05:53.411Z,0
2017-11-18T06:06:53.445Z,0
2017-11-18T06:07:53.190Z,0
2017-11-18T06:08:53.457Z,0
2017-11-18T06:09:53.471Z,0
2017-11-18T06:10:53.490Z,0
2017-11-18T06:11:53.245Z,0
2017-11-18T06:12:53.774Z,0
2017-11-18T06:13:53.282Z,0
2017-11-18T06:14:53.583Z,0
2017-11-18T06:15:53.604Z,0
2017-11-18T06:16:53.834Z,0
2017-11-18T06:17:53.853Z,0
2017-11-18T06:18:53.619Z,0
2017-11-18T06:19:53.625Z,0
2017-11-18T06:20:53.903Z,0
2017-11-18T06:21:53.899Z,0
2017-11-18T06:22:53.452Z,0
2017-11-18T06:23:53.421Z,0
2017-11-18T06:24:53.947Z,0
2017-11-18T06:25:53.710Z,0
2017-11-18T06:26:53.200Z,0
2017-11-18T06:27:53.732Z,0
2017-11-18T06:28:53.759Z,0
2017-11-18T06:29:54.026Z,0
2017-11-18T06:30:53.823Z,0
2017-11-18T06:31:53.809Z,0
2017-11-18T06:32:53.825Z,0
2017-11-18T06:33:54.085Z,0
2017-11-18T06:34:53.833Z,0
2017-11-18T06:35:54.114Z,0
2017-11-18T06:36:53.343Z,0
2017-11-18T06:37:53.821Z,0
2017-11-18T06:38:53.891Z,0
2017-11-18T06:39:54.165Z,5
2017-11-18T06:40:53.931Z,5
2017-11-18T06:41:53.925Z,5
2017-11-18T06:42:53.955Z,5
2017-11-18T06:43:53.968Z,5
2017-11-18T06:44:54.013Z,5
2017-11-18T06:45:54.316Z,5
2017-11-18T06:46:53.747Z,5
2017-11-18T06:47:54.017Z,5
2017-11-18T06:48:53.791Z,5
2017-11-18T06:49:54.304Z,5
2017-11-18T06:50:53.798Z,5
2017-11-18T06:51:54.339Z,5
2017-11-18T06:52:53.829Z,5
2017-11-18T06:53:54.375Z,5
2017-11-18T06:54:54.384Z,5
2017-11-18T06:55:54.005Z,5
2017-11-18T06:56:54.414Z,5
2017-11-18T06:57:53.905Z,5
2017-11-18T06:58:54.182Z,5
2017-11-18T06:59:54.452Z,5
2017-11-18T07:00:54.199Z,10
2017-11-18T07:01:54.468Z,10
2017-11-18T07:02:54.531Z,10
2017-11-18T07:03:54.239Z,10
2017-11-18T07:04:54.266Z,10
2017-11-18T07:05:54.288Z,10
2017-11-18T07:06:54.564Z,10
2017-11-18T07:07:54.304Z,10
2017-11-18T07:08:54.321Z,10
2017-11-18T07:09:54.334Z,10
2017-11-18T07:10:54.087Z,10
2017-11-18T07:11:54.617Z,15
2017-11-18T07:12:54.116Z,15
2017-11-18T07:13:54.389Z,15
2017-11-18T07:14:54.730Z,15
2017-11-18T07:15:54.413Z,15
2017-11-18T07:16:54.418Z,15
2017-11-18T07:17:54.440Z,15
2017-11-18T07:18:54.461Z,15
2017-11-18T07:19:54.776Z,15
2017-11-18T07:20:54.743Z,15
2017-11-18T07:21:53.977Z,15
2017-11-18T07:22:54.532Z,15
2017-11-18T07:23:54.772Z,15
2017-11-18T07:24:54.543Z,15
2017-11-18T07:25:54.295Z,20
2017-11-18T07:26:54.317Z,20
2017-11-18T07:27:54.606Z,20
2017-11-18T07:28:54.624Z,20
2017-11-18T07:29:54.689Z,20
2017-11-18T07:30:54.379Z,20
2017-11-18T07:31:54.677Z,20
2017-11-18T07:32:54.951Z,20
2017-11-18T07:33:54.677Z,20
2017-11-18T07:34:54.938Z,20
2017-11-18T07:35:54.970Z,25
2017-11-18T07:36:54.718Z,25
2017-11-18T07:37:54.774Z,25
2017-11-18T07:38:54.486Z,25
2017-11-18T07:39:54.757Z,25
2017-11-18T07:40:54.264Z,25
2017-11-18T07:41:54.794Z,25
2017-11-18T07:42:54.812Z,25
2017-11-18T07:43:54.815Z,25
2017-11-18T07:44:54.828Z,25
2017-11-18T07:45:54.581Z,30
2017-11-18T07:46:54.867Z,30
2017-11-18T07:47:54.881Z,30
2017-11-18T07:48:54.885Z,30
2017-11-18T07:49:54.639Z,30
2017-11-18T07:50:54.929Z,30
2017-11-18T07:51:55.065Z,30
2017-11-18T07:52:54.955Z,30
2017-11-18T07:53:54.974Z,25
2017-11-18T07:54:54.974Z,25
2017-11-18T07:55:54.986Z,20
2017-11-18T07:56:55.061Z,25
2017-11-18T07:57:55.290Z,25
2017-11-18T07:58:55.292Z,25
2017-11-18T07:59:55.308Z,25
2017-11-18T08:00:55.064Z,25
2017-11-18T08:01:55.344Z,25
2017-11-18T08:02:55.105Z,25
2017-11-18T08:03:55.122Z,30
2017-11-18T08:04:55.380Z,35
2017-11-18T08:05:55.394Z,35
2017-11-18T08:06:55.419Z,40
2017-11-18T08:07:55.165Z,40
2017-11-18T08:08:54.922Z,35
2017-11-18T08:09:54.945Z,35
2017-11-18T08:10:54.692Z,30
2017-11-18T08:11:55.013Z,35
2017-11-18T08:12:55.244Z,35
2017-11-18T08:13:55.252Z,35
2017-11-18T08:14:55.541Z,35
2017-11-18T08:15:55.060Z,40
2017-11-18T08:16:55.301Z,40
2017-11-18T08:17:55.061Z,35
2017-11-18T08:18:55.595Z,40
2017-11-18T08:19:55.344Z,35
2017-11-18T08:20:55.094Z,35
2017-11-18T08:21:55.367Z,35
2017-11-18T08:22:55.664Z,35
2017-11-18T08:23:55.656Z,35
2017-11-18T08:24:55.675Z,45
2017-11-18T08:25:55.420Z,45
2017-11-18T08:26:55.233Z,40
2017-11-18T08:27:55.454Z,40
2017-11-18T08:28:55.477Z,40
2017-11-18T08:29:55.496Z,40
2017-11-18T08:30:56.016Z,40
2017-11-18T08:31:55.522Z,45
2017-11-18T08:32:55.786Z,45
2017-11-18T08:33:55.804Z,45
2017-11-18T08:34:55.444Z,45
2017-11-18T08:35:55.573Z,45
2017-11-18T08:36:55.846Z,45
2017-11-18T08:37:55.597Z,55
2017-11-18T08:38:55.618Z,55
2017-11-18T08:39:55.647Z,50
2017-11-18T08:40:55.655Z,45
2017-11-18T08:41:55.659Z,40
2017-11-18T08:42:55.420Z,45
2017-11-18T08:43:55.426Z,55
2017-11-18T08:44:55.961Z,55
2017-11-18T08:45:55.993Z,55
2017-11-18T08:46:55.743Z,50
2017-11-18T08:47:55.740Z,50
2017-11-18T08:48:56.035Z,55
2017-11-18T08:49:55.781Z,60
2017-11-18T08:50:55.789Z,55
2017-11-18T08:51:56.084Z,50
2017-11-18T08:52:55.558Z,50
2017-11-18T08:53:55.579Z,45
2017-11-18T08:54:55.590Z,40
2017-11-18T08:55:55.865Z,40
2017-11-18T08:56:55.617Z,50
2017-11-18T08:57:55.479Z,55
2017-11-18T08:58:55.893Z,55
2017-11-18T08:59:55.661Z,60
2017-11-18T09:00:55.672Z,70
2017-11-18T09:01:55.686Z,80
2017-11-18T09:02:55.709Z,85
2017-11-18T09:03:56.265Z,85
2017-11-18T09:04:55.733Z,80
2017-11-18T09:05:55.745Z,75
2017-11-18T09:06:56.024Z,65
2017-11-18T09:07:56.304Z,70
2017-11-18T09:08:56.073Z,70
2017-11-18T09:09:56.099Z,75
2017-11-18T09:10:56.068Z,70
2017-11-18T09:11:56.349Z,70
2017-11-18T09:12:56.158Z,70
2017-11-18T09:13:55.862Z,70
2017-11-18T09:14:55.886Z,65
2017-11-18T09:15:56.160Z,65
2017-11-18T09:16:56.421Z,75
2017-11-18T09:17:55.928Z,75
2017-11-18T09:18:55.953Z,70
2017-11-18T09:19:56.226Z,65
2017-11-18T09:20:56.243Z,60
2017-11-18T09:21:56.233Z,60
2017-11-18T09:22:56.274Z,60
2017-11-18T09:23:56.267Z,65
2017-11-18T09:24:56.292Z,65
2017-11-18T09:25:56.294Z,65
2017-11-18T09:26:56.316Z,65
2017-11-18T09:27:56.639Z,65
2017-11-18T09:28:56.345Z,65
2017-11-18T09:29:56.355Z,60
2017-11-18T09:30:55.854Z,60
2017-11-18T09:31:56.394Z,60
2017-11-18T09:32:56.406Z,60
2017-11-18T09:33:56.156Z,60
2017-11-18T09:34:56.174Z,50
2017-11-18T09:35:56.715Z,45
2017-11-18T09:36:56.459Z,45
2017-11-18T09:37:56.473Z,55
2017-11-18T09:38:56.244Z,65
2017-11-18T09:39:56.246Z,70
2017-11-18T09:40:56.522Z,65
2017-11-18T09:41:56.537Z,60
2017-11-18T09:42:56.080Z,60
2017-11-18T09:43:56.819Z,60
2017-11-18T09:44:56.314Z,65
2017-11-18T09:45:56.331Z,60
2017-11-18T09:46:56.620Z,60
2017-11-18T09:47:56.618Z,60
2017-11-18T09:48:56.635Z,60
2017-11-18T09:49:56.922Z,60
2017-11-18T09:50:56.690Z,60
2017-11-18T09:51:56.943Z,60
2017-11-18T09:52:56.693Z,55
2017-11-18T09:53:56.711Z,45
2017-11-18T09:54:56.994Z,45
2017-11-18T09:55:57.033Z,45
2017-11-18T09:56:56.755Z,45
2017-11-18T09:57:57.101Z,45
2017-11-18T09:58:56.803Z,40
2017-11-18T09:59:57.054Z,40
2017-11-18T10:00:56.820Z,40
2017-11-18T10:01:57.106Z,40
2017-11-18T10:02:56.607Z,40
2017-11-18T10:03:56.884Z,40
2017-11-18T10:04:56.356Z,40
2017-11-18T10:05:57.157Z,40
2017-11-18T10:06:56.648Z,35
2017-11-18T10:07:56.664Z,40
2017-11-18T10:08:56.940Z,40
2017-11-18T10:09:56.684Z,40
2017-11-18T10:10:56.710Z,40
2017-11-18T10:11:56.978Z,40
2017-11-18T10:12:57.043Z,40
2017-11-18T10:13:57.295Z,40
2017-11-18T10:14:56.765Z,40
2017-11-18T10:15:57.104Z,40
2017-11-18T10:16:57.310Z,35
2017-11-18T10:17:57.062Z,35
2017-11-18T10:18:57.080Z,35
2017-11-18T10:19:57.374Z,35
2017-11-18T10:20:57.123Z,35
2017-11-18T10:21:57.164Z,35
2017-11-18T10:22:57.411Z,35
2017-11-18T10:23:57.189Z,40
2017-11-18T10:24:57.160Z,40
2017-11-18T10:25:57.180Z,35
2017-11-18T10:26:57.214Z,35
2017-11-18T10:27:57.491Z,35
2017-11-18T10:28:57.227Z,35
2017-11-18T10:29:56.987Z,35
2017-11-18T10:30:57.524Z,35
2017-11-18T10:31:57.585Z,35
2017-11-18T10:32:57.082Z,35
2017-11-18T10:33:57.548Z,40
2017-11-18T10:34:57.325Z,40
2017-11-18T10:35:57.061Z,35
2017-11-18T10:36:57.382Z,35
2017-11-18T10:37:57.357Z,40
2017-11-18T10:38:57.620Z,40
2017-11-18T10:39:57.385Z,35
2017-11-18T10:40:57.397Z,35
2017-11-18T10:41:57.675Z,40
2017-11-18T10:42:57.707Z,45
2017-11-18T10:43:57.716Z,45
2017-11-18T10:44:57.752Z,45
2017-11-18T10:45:57.472Z,45
2017-11-18T10:46:57.292Z,40
2017-11-18T10:47:57.494Z,45
2017-11-18T10:48:57.767Z,45
2017-11-18T10:49:57.788Z,50
2017-11-18T10:50:57.313Z,50
2017-11-18T10:51:57.319Z,50
2017-11-18T10:52:57.316Z,50
2017-11-18T10:53:57.863Z,55
2017-11-18T10:54:57.077Z,65
2017-11-18T10:55:57.604Z,65
2017-11-18T10:56:57.885Z,70
2017-11-18T10:57:57.633Z,70
2017-11-18T10:58:57.663Z,80
2017-11-18T10:59:57.948Z,80
2017-11-18T11:00:57.696Z,80
2017-11-18T11:01:57.496Z,85
2017-11-18T11:02:57.453Z,85
2017-11-18T11:03:57.729Z,100
2017-11-18T11:04:58.052Z,110
2017-11-18T11:05:57.753Z,115
2017-11-18T11:06:57.776Z,100
2017-11-18T11:07:57.811Z,120
2017-11-18T11:08:57.548Z,115
2017-11-18T11:09:58.076Z,95
2017-11-18T11:10:58.105Z,105
2017-11-18T11:11:58.129Z,105
2017-11-18T11:12:57.859Z,105
2017-11-18T11:14:23.313Z,100
2017-11-18T11:15:23.314Z,90
2017-11-18T11:15:57.909Z,80
2017-11-18T11:16:57.926Z,70
2017-11-18T11:17:57.940Z,60
2017-11-18T11:18:57.429Z,50
2017-11-18T11:19:58.219Z,50
2017-11-18T11:20:58.244Z,50
2017-11-18T11:22:17.194Z,55
2017-11-18T11:22:57.753Z,65
2017-11-18T11:23:58.039Z,75
2017-11-18T11:24:58.311Z,80
2017-11-18T11:25:58.312Z,85
2017-11-18T11:26:58.070Z,85
2017-11-18T11:27:58.368Z,95
2017-11-18T11:28:58.100Z,90
2017-11-18T11:29:58.116Z,85
2017-11-18T11:30:57.870Z,85
2017-11-18T11:31:58.416Z,75
2017-11-18T11:32:58.423Z,75
2017-11-18T11:33:57.921Z,65
2017-11-18T11:34:58.600Z,60
2017-11-18T11:35:58.208Z,55
2017-11-18T11:36:58.226Z,55
2017-11-18T11:37:58.281Z,60
2017-11-18T11:38:58.547Z,55
2017-11-18T11:39:58.544Z,45
2017-11-18T11:40:58.282Z,40
2017-11-18T11:41:58.083Z,45
2017-11-18T11:42:58.315Z,60
2017-11-18T11:43:57.812Z,60
2017-11-18T11:44:58.083Z,50
2017-11-18T11:45:58.127Z,45
2017-11-18T11:46:58.368Z,50
2017-11-18T11:47:58.389Z,55
2017-11-18T11:48:58.179Z,70
2017-11-18T11:49:58.724Z,70
2017-11-18T11:50:58.440Z,60
2017-11-18T11:51:58.450Z,55
2017-11-18T11:52:58.474Z,60
2017-11-18T11:53:58.745Z,55
2017-11-18T11:54:58.761Z,55
2017-11-18T11:55:58.783Z,55
2017-11-18T11:56:58.288Z,70
2017-11-18T11:57:58.292Z,75
2017-11-18T11:58:58.297Z,80
2017-11-18T11:59:58.328Z,85
2017-11-18T12:00:58.886Z,95
2017-11-18T12:01:58.644Z,90
2017-11-18T12:02:58.376Z,85
2017-11-18T12:03:58.387Z,75
2017-11-18T12:04:58.703Z,75
2017-11-18T12:05:58.408Z,70
2017-11-18T12:06:58.945Z,75
2017-11-18T12:07:58.179Z,85
2017-11-18T12:08:58.711Z,90
2017-11-18T12:09:58.801Z,100
2017-11-18T12:10:59.026Z,95
2017-11-18T12:11:58.803Z,100
2017-11-18T12:12:58.775Z,100
2017-11-18T12:13:59.049Z,95
2017-11-18T12:14:58.543Z,100
2017-11-18T12:15:59.093Z,95
2017-11-18T12:16:59.093Z,90
2017-11-18T12:17:59.115Z,80
2017-11-18T12:18:58.865Z,70
2017-11-18T12:19:58.955Z,70
2017-11-18T12:20:59.096Z,65
2017-11-18T12:21:58.676Z,65
2017-11-18T12:22:58.679Z,65
2017-11-18T12:23:58.945Z,70
2017-11-18T12:24:58.969Z,75
2017-11-18T12:25:58.983Z,75
2017-11-18T12:26:58.488Z,80
2017-11-18T12:27:59.010Z,105
2017-11-18T12:28:59.284Z,130
2017-11-18T12:29:59.048Z,135
2017-11-18T12:30:59.315Z,130
2017-11-18T12:31:59.068Z,125
2017-11-18T12:32:59.088Z,115
2017-11-18T12:33:59.146Z,110
2017-11-18T12:34:59.016Z,105
2017-11-18T12:35:58.881Z,105
2017-11-18T12:36:59.146Z,135
2017-11-18T12:37:59.422Z,190
2017-11-18T12:38:59.195Z,190
2017-11-18T12:39:58.932Z,185
2017-11-18T12:40:58.950Z,180
2017-11-18T12:41:59.254Z,155
2017-11-18T12:42:58.988Z,130
2017-11-18T12:43:59.541Z,120
2017-11-18T12:44:59.036Z,105
2017-11-18T12:45:59.307Z,95
2017-11-18T12:46:59.053Z,105
2017-11-18T12:47:59.325Z,95
2017-11-18T12:48:59.605Z,95
2017-11-18T12:49:59.703Z,105
2017-11-18T12:50:59.380Z,95
2017-11-18T12:51:59.389Z,75
2017-11-18T12:52:59.415Z,75
2017-11-18T12:53:59.680Z,85
2017-11-18T12:54:59.700Z,100
2017-11-18T12:55:59.467Z,100
2017-11-18T12:56:59.212Z,85
2017-11-18T12:57:59.488Z,75
2017-11-18T12:58:59.763Z,80
2017-11-18T12:59:59.564Z,85
2017-11-18T13:00:59.277Z,75
2017-11-18T13:01:59.292Z,75
2017-11-18T13:02:59.306Z,70
2017-11-18T13:03:59.596Z,70
2017-11-18T13:04:59.403Z,65
2017-11-18T13:05:59.101Z,65
2017-11-18T13:06:59.646Z,60
2017-11-18T13:07:59.393Z,60
2017-11-18T13:08:59.918Z,50
2017-11-18T13:09:59.429Z,50
2017-11-18T13:10:59.957Z,45
2017-11-18T13:11:59.728Z,40
2017-11-18T13:12:59.997Z,40
2017-11-18T13:13:59.743Z,40
2017-11-18T13:14:59.535Z,45
2017-11-18T13:15:59.814Z,45
2017-11-18T13:16:59.791Z,50
2017-11-18T13:17:59.832Z,50
2017-11-18T13:19:00.089Z,60
2017-11-18T13:19:59.888Z,65
2017-11-18T13:20:59.853Z,65
2017-11-18T13:21:59.618Z,65
2017-11-18T13:22:59.893Z,60
2017-11-18T13:23:59.910Z,55
2017-11-18T13:24:59.914Z,55
2017-11-18T13:25:59.679Z,50
2017-11-18T13:26:59.442Z,50
2017-11-18T13:27:59.717Z,45
2017-11-18T13:28:59.739Z,45
2017-11-18T13:30:00.006Z,40
2017-11-18T13:31:00.018Z,40
2017-11-18T13:32:00.298Z,35
2017-11-18T13:32:59.786Z,35
2017-11-18T13:34:00.056Z,35
2017-11-18T13:35:00.384Z,35
2017-11-18T13:36:00.358Z,35
2017-11-18T13:36:59.604Z,35
2017-11-18T13:37:59.870Z,40
2017-11-18T13:38:59.922Z,40
2017-11-18T13:40:00.442Z,35
2017-11-18T13:41:00.440Z,30
2017-11-18T13:42:00.198Z,30
2017-11-18T13:43:00.216Z,30
2017-11-18T13:43:59.971Z,30
2017-11-18T13:45:00.239Z,25
2017-11-18T13:45:59.999Z,25
2017-11-18T13:47:00.530Z,20
2017-11-18T13:47:59.767Z,20
2017-11-18T13:49:00.559Z,20
2017-11-18T13:50:00.107Z,20
2017-11-18T13:51:00.359Z,15
2017-11-18T13:52:00.643Z,15
2017-11-18T13:53:00.363Z,15
2017-11-18T13:54:00.377Z,15
2017-11-18T13:55:00.163Z,15
2017-11-18T13:56:00.418Z,15
2017-11-18T13:57:00.183Z,15
2017-11-18T13:57:59.924Z,20
2017-11-18T13:59:00.455Z,20
2017-11-18T14:00:00.476Z,20
2017-11-18T14:01:00.756Z,15
2017-11-18T14:02:00.792Z,10
2017-11-18T14:03:00.522Z,10
2017-11-18T14:04:00.536Z,10
2017-11-18T14:05:00.603Z,10
2017-11-18T14:06:00.835Z,10
2017-11-18T14:07:00.590Z,10
2017-11-18T14:08:00.587Z,15
2017-11-18T14:09:00.666Z,20
2017-11-18T14:10:00.685Z,25
2017-11-18T14:11:00.908Z,25
2017-11-18T14:12:00.405Z,30
2017-11-18T14:13:00.934Z,30
2017-11-18T14:14:00.685Z,30
2017-11-18T14:15:01.014Z,30
2017-11-18T14:16:00.989Z,30
2017-11-18T14:17:00.519Z,25
2017-11-18T14:18:01.013Z,25
2017-11-18T14:19:00.782Z,25
2017-11-18T14:20:00.783Z,25
2017-11-18T14:21:00.795Z,25
2017-11-18T14:22:01.069Z,25
2017-11-18T14:23:00.568Z,25
2017-11-18T14:39:47.885Z,20
2017-11-18T14:40:47.653Z,20
2017-11-18T14:41:47.899Z,20
2017-11-18T14:42:47.656Z,20
2017-11-18T14:43:47.925Z,20
2017-11-18T14:44:48.191Z,15
2017-11-18T14:45:47.681Z,15